New Holland, Ohio
Current Conditions -  °F | °C
As of 12:55 AM on Tuesday 27 Jan 2015 (Local Time) from KRZT Reporting Station
Overcast Overcast  
Wind Chill:   Ceiling: 9500
Heat Index: 14°   Visibility: 10mi
Dew Point: 10°   Wind: 5mph
Humidity: 86%   Direction: 10°N
Pressure: 29.95"   Gusts: NA
Location:  39.55°N, 83.26°W
Report Text: KRZT 270555Z AUTO 01004KT 10SM OVC095 M10/M12 A2995 RMK AO2
Loading
Personal Weather Stations






























Interactive Weather Map New forecast layout! Learn more

10-Day Weather Forecast

Advertisements
Track Severe Weather on mobile